Terminal Aerodrome Forecast
Issued by NWS

Home | Current Version | Previous Version | Text Only | Print | Product List | Glossary On
Versions: 1 2 3 4 5 6 7 8 9 10 11 12 13 14 15 16 17 18 19 20 21 22 23 24 25 26 27
000
FTUS41 KBGM 230900 AAB
TAFITH
TAF AMD
KITH 230908Z 2309/2406 13005KT P6SM OVC035
      TEMPO 2309/2311 OVC015
     FM231100 15004KT P6SM OVC015
     FM231700 13005KT P6SM OVC025
     FM231900 14005KT P6SM SCT025 BKN040=

USA.gov is the U.S. government's official web portal to all federal, state and local government web resources and services.